createdAt,value
2024-02-08T00:00:47.964Z,99074.31
2024-02-08T00:03:15.464Z,99065.44
2024-02-08T00:05:42.973Z,99079.25
2024-02-08T00:08:13.625Z,99061.03
2024-02-08T00:10:41.244Z,99073.22
2024-02-08T00:13:08.439Z,99078.69
2024-02-08T00:15:36.356Z,99067.63
2024-02-08T00:18:04.751Z,99071.25
2024-02-08T00:20:33.218Z,99080.66
2024-02-08T00:23:00.712Z,99074.56
2024-02-08T00:25:27.994Z,99083.69
2024-02-08T00:27:55.144Z,99074.28
2024-02-08T00:30:22.410Z,99081.47
2024-02-08T00:32:50.415Z,99088.41
2024-02-08T00:35:19.697Z,99083.94
2024-02-08T00:37:48.444Z,99088.13
2024-02-08T00:40:16.851Z,99085.56
2024-02-08T00:42:44.389Z,99104.66
2024-02-08T00:45:11.979Z,99097.50
2024-02-08T00:47:39.221Z,99111.84
2024-02-08T00:50:07.143Z,99119.66
2024-02-08T00:52:34.993Z,99122.94
2024-02-08T00:55:02.419Z,99128.72
2024-02-08T00:57:30.647Z,99123.22
2024-02-08T00:59:57.980Z,99136.75
2024-02-08T01:02:25.307Z,99139.84
2024-02-08T01:04:52.685Z,99127.66
2024-02-08T01:07:19.984Z,99127.94
2024-02-08T01:09:47.391Z,99135.69
2024-02-08T01:12:14.629Z,99120.47
2024-02-08T01:14:43.574Z,99111.63
2024-02-08T01:17:10.924Z,99125.19
2024-02-08T01:19:38.240Z,99128.50
2024-02-08T01:22:05.699Z,99122.72
2024-02-08T01:24:33.027Z,99121.88
2024-02-08T01:27:00.154Z,99127.94
2024-02-08T01:29:27.666Z,99127.66
2024-02-08T01:31:55.294Z,99132.94
2024-02-08T01:34:30.441Z,99125.47
2024-02-08T01:37:01.062Z,99133.75
2024-02-08T01:39:28.420Z,99141.50
2024-02-08T01:41:55.831Z,99135.72
2024-02-08T01:44:23.136Z,99148.06
2024-02-08T01:46:51.727Z,99150.28
2024-02-08T01:49:25.197Z,99133.47
2024-02-08T01:52:01.794Z,99142.84
2024-02-08T01:54:32.622Z,99146.97
2024-02-08T01:57:00.144Z,99147.09
2024-02-08T01:59:28.927Z,99164.88
2024-02-08T02:01:57.689Z,99172.34
2024-02-08T02:04:25.061Z,99168.72
2024-02-08T02:06:52.638Z,99164.63
2024-02-08T02:09:26.463Z,99169.25
2024-02-08T02:12:09.535Z,99184.69
2024-02-08T02:14:37.150Z,99177.97
2024-02-08T02:17:11.657Z,99180.78
2024-02-08T02:19:40.216Z,99173.34
2024-02-08T02:22:10.571Z,99185.25
2024-02-08T02:24:38.163Z,99186.78
2024-02-08T02:27:09.584Z,99184.13
2024-02-08T02:29:40.528Z,99190.28
2024-02-08T02:32:12.121Z,99196.38
2024-02-08T02:34:43.414Z,99186.63
2024-02-08T02:37:12.845Z,99195.22
2024-02-08T02:39:40.463Z,99204.56
2024-02-08T02:42:08.205Z,99203.19
2024-02-08T02:44:36.671Z,99204.50
2024-02-08T02:47:07.468Z,99200.44
2024-02-08T02:49:40.915Z,99189.00
2024-02-08T02:52:11.820Z,99189.38
2024-02-08T02:54:42.345Z,99203.66
2024-02-08T02:57:10.033Z,99213.34
2024-02-08T02:59:38.510Z,99215.53
2024-02-08T03:02:06.002Z,99229.09
2024-02-08T03:04:33.252Z,99213.09
2024-02-08T03:07:00.620Z,99223.22
2024-02-08T03:09:32.911Z,99222.41
2024-02-08T03:12:00.661Z,99224.06
2024-02-08T03:14:28.691Z,99230.41
2024-02-08T03:17:02.733Z,99244.84
2024-02-08T03:19:32.163Z,99240.97
2024-02-08T03:21:59.540Z,99245.59
2024-02-08T03:24:30.065Z,99252.63
2024-02-08T03:26:57.426Z,99245.91
2024-02-08T03:29:24.679Z,99254.03
2024-02-08T03:31:54.195Z,99257.06
2024-02-08T03:34:25.212Z,99258.75
2024-02-08T03:36:52.898Z,99253.78
2024-02-08T03:39:26.979Z,99267.84
2024-02-08T03:41:59.423Z,99241.97
2024-02-08T03:44:27.245Z,99248.84
2024-02-08T03:46:55.111Z,99259.16
2024-02-08T03:49:22.530Z,99262.81
2024-02-08T03:51:49.768Z,99275.56
2024-02-08T03:54:17.908Z,99276.81
2024-02-08T03:56:47.283Z,99292.03
2024-02-08T03:59:27.389Z,99289.00
2024-02-08T04:02:07.758Z,99302.03
2024-02-08T04:04:54.854Z,99293.78
2024-02-08T04:07:48.902Z,99286.47
2024-02-08T04:10:31.620Z,99305.00
2024-02-08T04:13:17.430Z,99309.38
2024-02-08T04:16:03.391Z,99303.44
2024-02-08T04:18:49.534Z,99301.66
2024-02-08T04:21:35.411Z,99300.81
2024-02-08T04:24:21.262Z,99290.69
2024-02-08T04:27:07.121Z,99296.97
2024-02-08T04:29:53.211Z,99309.75
2024-02-08T04:32:40.986Z,99322.50
2024-02-08T04:35:27.230Z,99317.97
2024-02-08T04:38:13.120Z,99307.19
2024-02-08T04:40:58.890Z,99335.25
2024-02-08T04:43:45.117Z,99334.31
2024-02-08T04:46:41.027Z,99345.19
2024-02-08T04:49:30.572Z,99346.28
2024-02-08T04:52:16.728Z,99338.25
2024-02-08T04:54:44.082Z,99332.84
2024-02-08T04:57:11.360Z,99343.50
2024-02-08T04:59:42.791Z,99361.75
2024-02-08T05:02:10.850Z,99365.63
2024-02-08T05:04:38.370Z,99364.38
2024-02-08T05:07:06.303Z,99355.97
2024-02-08T05:09:34.315Z,99364.03
2024-02-08T15:29:10.481Z,99833.56
2024-02-08T15:31:47.261Z,99829.50
2024-02-08T15:34:18.421Z,99819.41
2024-02-08T15:36:52.054Z,99833.81
2024-02-08T15:39:48.585Z,99834.88
2024-02-08T15:42:21.336Z,99840.34
2024-02-08T15:44:54.210Z,99834.47
2024-02-08T15:47:22.791Z,99839.84
2024-02-08T15:49:56.307Z,99837.38
2024-02-08T15:52:24.445Z,99842.13
2024-02-08T15:55:00.039Z,99833.28
2024-02-08T15:57:34.323Z,99839.38
2024-02-08T16:00:02.131Z,99848.03
2024-02-08T16:02:37.236Z,99850.13
2024-02-08T16:05:15.481Z,99846.59
2024-02-08T16:07:45.955Z,99854.44
2024-02-08T16:10:25.970Z,99853.56
2024-02-08T16:13:06.764Z,99856.66
2024-02-08T16:15:54.256Z,99859.59
2024-02-08T16:18:27.374Z,99859.22
2024-02-08T16:20:56.422Z,99862.47
2024-02-08T16:23:45.348Z,99862.28
2024-02-08T16:26:14.189Z,99862.13
2024-02-08T16:28:51.193Z,99864.09
2024-02-08T16:31:19.296Z,99868.16
2024-02-08T16:33:56.164Z,99866.47
2024-02-08T16:36:27.596Z,99864.19
2024-02-08T16:39:08.775Z,99861.84
2024-02-08T16:41:50.016Z,99859.84
2024-02-08T16:44:23.505Z,99860.38
2024-02-08T16:46:57.069Z,99848.16
2024-02-08T16:49:29.261Z,99857.63
2024-02-08T16:51:57.929Z,99851.91
2024-02-08T16:54:31.295Z,99872.88
2024-02-08T16:56:59.038Z,99881.19
2024-02-08T16:59:36.609Z,99879.75
2024-02-08T17:02:13.632Z,99870.91
2024-02-08T17:04:41.823Z,99878.94
2024-02-08T17:07:12.618Z,99876.06
2024-02-08T17:09:48.576Z,99881.81
2024-02-08T17:12:28.685Z,99877.53
2024-02-08T17:14:58.414Z,99880.84
2024-02-08T17:17:36.937Z,99884.09
2024-02-08T17:20:23.958Z,99888.22
2024-02-08T17:23:06.064Z,99890.66
2024-02-08T17:25:43.674Z,99887.84
2024-02-08T17:28:22.542Z,99850.16
2024-02-08T17:31:03.392Z,99888.22
2024-02-08T17:33:32.140Z,99890.84
2024-02-08T17:36:00.529Z,99907.19
2024-02-08T17:38:36.587Z,99905.50
2024-02-08T17:41:10.024Z,99911.56
2024-02-08T17:43:40.357Z,99898.56
2024-02-08T17:46:08.670Z,99895.56
2024-02-08T17:48:38.625Z,99891.56
2024-02-08T17:51:12.707Z,99884.56
2024-02-08T17:53:46.157Z,99878.88
2024-02-08T17:56:18.860Z,99882.16
2024-02-08T17:58:47.225Z,99882.03
2024-02-08T18:01:17.359Z,99886.69
2024-02-08T18:03:48.004Z,99888.53
2024-02-08T18:06:18.360Z,99878.63
2024-02-08T18:08:48.090Z,99893.94
2024-02-08T18:11:17.637Z,99903.22
2024-02-08T18:13:45.438Z,99920.59
2024-02-08T18:16:13.354Z,99926.97
2024-02-08T18:18:41.579Z,99927.56
2024-02-08T18:21:15.423Z,99931.13
2024-02-08T18:23:49.814Z,99922.00
2024-02-08T18:26:32.952Z,99916.19
2024-02-08T18:29:04.846Z,99948.53
2024-02-08T18:31:36.465Z,99932.53
2024-02-08T18:34:06.536Z,99958.53
2024-02-08T18:36:35.995Z,99950.38
2024-02-08T18:39:04.301Z,99940.06
2024-02-08T18:41:31.646Z,99944.66
2024-02-08T18:43:59.269Z,99938.72
2024-02-08T18:46:29.017Z,99949.91
2024-02-08T18:48:57.978Z,99947.97
2024-02-08T18:51:26.509Z,99941.59
2024-02-08T18:53:54.116Z,99942.91
2024-02-08T18:56:21.570Z,99946.03
2024-02-08T18:58:53.535Z,99946.09
2024-02-08T19:01:22.588Z,99947.44
2024-02-08T19:03:50.169Z,99949.09
2024-02-08T19:06:19.336Z,99954.94
2024-02-08T19:08:47.805Z,99956.25
2024-02-08T19:11:15.188Z,99945.09
2024-02-08T19:13:43.056Z,99957.56
2024-02-08T19:16:17.765Z,99944.00
2024-02-08T19:18:47.647Z,99937.84
2024-02-08T19:21:23.030Z,99949.22
2024-02-08T19:23:50.654Z,99958.84
2024-02-08T19:26:26.444Z,99960.78
2024-02-08T19:28:54.716Z,99980.41
2024-02-08T19:31:25.263Z,99995.94
2024-02-08T19:33:53.813Z,99997.31
2024-02-08T19:36:24.780Z,100003.50
2024-02-08T19:38:55.680Z,100000.75
2024-02-08T19:41:24.659Z,99973.81
2024-02-08T19:43:51.939Z,99976.94
2024-02-08T19:46:20.584Z,99982.34
2024-02-08T19:48:53.799Z,99977.41
2024-02-08T19:51:26.356Z,99990.81
2024-02-08T19:53:56.810Z,99977.06
2024-02-08T19:56:24.259Z,99972.19
2024-02-08T19:58:53.884Z,99980.09
2024-02-08T20:01:25.357Z,99987.81
2024-02-08T20:03:56.069Z,99993.88
2024-02-08T20:06:23.655Z,100006.84
2024-02-08T20:08:55.861Z,99996.34
2024-02-08T20:11:29.271Z,100006.50
2024-02-08T20:14:07.799Z,100004.69
2024-02-08T20:16:38.659Z,100013.66
2024-02-08T20:19:10.666Z,100011.50
2024-02-08T20:21:39.326Z,100019.06
2024-02-08T20:24:13.143Z,100011.56
2024-02-08T20:26:49.449Z,99998.06
2024-02-08T20:29:18.566Z,100016.41
2024-02-08T20:31:46.524Z,99988.44
2024-02-08T20:34:14.488Z,100005.75
2024-02-08T20:36:44.021Z,99989.75
2024-02-08T20:39:20.540Z,99995.53
2024-02-08T20:41:49.145Z,99998.06
2024-02-08T20:44:16.674Z,100008.66
2024-02-08T20:46:50.421Z,100004.88
2024-02-08T20:49:21.889Z,99978.22
2024-02-08T20:51:51.950Z,99974.94
2024-02-08T20:54:19.311Z,99967.59
2024-02-08T20:56:49.854Z,99970.28
2024-02-08T20:59:18.706Z,99967.38
2024-02-08T21:01:47.342Z,99979.69
2024-02-08T21:04:21.456Z,99994.16
2024-02-08T21:06:49.054Z,100001.56
2024-02-08T21:09:16.516Z,100001.69
2024-02-08T21:11:43.884Z,99999.78
2024-02-08T21:14:11.038Z,99995.19
2024-02-08T21:16:42.323Z,100004.09
2024-02-08T21:19:15.372Z,100016.22
2024-02-08T21:21:43.055Z,100009.00
2024-02-08T21:24:12.176Z,100015.91
2024-02-08T21:26:40.069Z,100009.50
2024-02-08T21:29:07.549Z,100001.78
2024-02-08T21:31:35.025Z,99993.94
2024-02-08T21:34:02.806Z,100001.19
2024-02-08T21:36:30.757Z,99998.22
2024-02-08T21:38:57.922Z,99984.47
2024-02-08T21:41:25.279Z,99979.38
2024-02-08T21:43:52.524Z,99984.09
2024-02-08T21:46:22.619Z,99983.78
2024-02-08T21:48:50.025Z,99982.03
2024-02-08T21:51:18.095Z,99993.72
2024-02-08T21:53:45.353Z,100008.03
2024-02-08T21:56:13.361Z,99999.09
2024-02-08T21:58:41.085Z,100004.47
2024-02-08T22:03:54.216Z,99985.53
2024-02-08T22:06:22.143Z,100000.81
2024-02-08T22:08:49.836Z,100010.25
2024-02-08T22:11:17.099Z,100010.50
2024-02-08T22:13:47.153Z,100018.78
2024-02-08T22:16:20.485Z,100021.75
2024-02-08T22:18:48.117Z,100003.97
2024-02-08T22:21:18.499Z,100030.56
2024-02-08T22:23:45.911Z,100034.38
2024-02-08T22:26:17.790Z,100021.88
2024-02-08T22:28:45.264Z,100024.97
2024-02-08T22:31:12.887Z,100020.16
2024-02-08T22:33:40.419Z,100022.72
2024-02-08T22:36:08.006Z,100027.66
2024-02-08T22:38:35.240Z,100026.84
2024-02-08T22:41:02.740Z,100025.78
2024-02-08T22:43:30.207Z,100041.59
2024-02-08T22:45:57.653Z,100040.31
2024-02-08T22:48:25.015Z,100037.19
2024-02-08T22:50:52.733Z,100026.53
2024-02-08T22:53:21.270Z,100028.78
2024-02-08T22:55:52.346Z,100029.34
2024-02-08T22:58:22.740Z,100034.38
2024-02-08T23:01:02.139Z,100024.81
2024-02-08T23:03:29.932Z,100027.94
2024-02-08T23:05:58.805Z,100013.09
2024-02-08T23:08:26.373Z,100015.72
2024-02-08T23:10:53.640Z,100025.97
2024-02-08T23:13:20.915Z,100037.06
2024-02-08T23:15:48.730Z,100034.31
2024-02-08T23:18:16.801Z,100033.44
2024-02-08T23:20:47.590Z,100039.84
2024-02-08T23:23:14.952Z,100051.28
2024-02-08T23:25:42.318Z,100020.31
2024-02-08T23:28:12.614Z,100019.97
2024-02-08T23:30:45.845Z,100026.31
2024-02-08T23:33:18.294Z,100033.69
2024-02-08T23:35:46.550Z,100028.72
2024-02-08T23:38:18.739Z,100018.91
2024-02-08T23:40:46.225Z,100020.53
2024-02-08T23:43:15.969Z,100013.31
2024-02-08T23:45:44.623Z,100009.66
2024-02-08T23:48:12.243Z,100030.50
2024-02-08T23:50:39.727Z,100026.47
2024-02-08T23:53:08.487Z,100028.22
2024-02-08T23:55:36.861Z,100036.00
2024-02-08T23:58:12.473Z,100049.41
